sensor_id;sensor_type;location;lat;lon;timestamp;temperature;humidity
1015;DHT22;8170;48.118;11.628;2022-09-09T00:01:01;14.80;99.90
1015;DHT22;8170;48.118;11.628;2022-09-09T00:02:15;14.70;99.90
1015;DHT22;8170;48.118;11.628;2022-09-09T00:03:24;14.80;99.90
1015;DHT22;8170;48.118;11.628;2022-09-09T00:04:30;14.80;99.90
1015;DHT22;8170;48.118;11.628;2022-09-09T00:05:38;14.80;99.90
1015;DHT22;8170;48.118;11.628;2022-09-09T00:06:49;14.80;99.90
1015;DHT22;8170;48.118;11.628;2022-09-09T00:07:54;14.80;99.90
1015;DHT22;8170;48.118;11.628;2022-09-09T00:09:02;14.80;99.90
1015;DHT22;8170;48.118;11.628;2022-09-09T00:10:16;14.80;99.90
1015;DHT22;8170;48.118;11.628;2022-09-09T00:11:26;14.80;99.90
1015;DHT22;8170;48.118;11.628;2022-09-09T00:12:36;14.80;99.90
1015;DHT22;8170;48.118;11.628;2022-09-09T00:13:43;14.80;99.90
1015;DHT22;8170;48.118;11.628;2022-09-09T00:14:52;14.90;99.90
1015;DHT22;8170;48.118;11.628;2022-09-09T00:16:00;14.90;99.90
1015;DHT22;8170;48.118;11.628;2022-09-09T00:17:07;14.80;99.90
1015;DHT22;8170;48.118;11.628;2022-09-09T00:18:21;14.90;99.90
1015;DHT22;8170;48.118;11.628;2022-09-09T00:19:31;14.80;99.90
1015;DHT22;8170;48.118;11.628;2022-09-09T00:20:38;14.80;99.90
1015;DHT22;8170;48.118;11.628;2022-09-09T00:21:46;14.70;99.90
1015;DHT22;8170;48.118;11.628;2022-09-09T00:22:55;14.70;99.90
1015;DHT22;8170;48.118;11.628;2022-09-09T00:23:58;14.80;99.90
1015;DHT22;8170;48.118;11.628;2022-09-09T00:25:10;14.70;99.90
1015;DHT22;8170;48.118;11.628;2022-09-09T00:26:18;14.70;99.90
1015;DHT22;8170;48.118;11.628;2022-09-09T00:27:28;14.70;99.90
1015;DHT22;8170;48.118;11.628;2022-09-09T00:28:39;14.60;99.90
1015;DHT22;8170;48.118;11.628;2022-09-09T00:29:47;14.60;99.90
1015;DHT22;8170;48.118;11.628;2022-09-09T00:30:56;14.70;99.90
1015;DHT22;8170;48.118;11.628;2022-09-09T00:32:05;14.70;99.90
1015;DHT22;8170;48.118;11.628;2022-09-09T00:33:12;14.60;99.90
1015;DHT22;8170;48.118;11.628;2022-09-09T00:34:20;14.60;99.90
1015;DHT22;8170;48.118;11.628;2022-09-09T00:35:25;14.70;99.90
1015;DHT22;8170;48.118;11.628;2022-09-09T00:36:31;14.70;99.90
1015;DHT22;8170;48.118;11.628;2022-09-09T00:37:35;14.70;99.90
1015;DHT22;8170;48.118;11.628;2022-09-09T00:38:42;14.70;99.90
1015;DHT22;8170;48.118;11.628;2022-09-09T00:39:46;14.70;99.90
1015;DHT22;8170;48.118;11.628;2022-09-09T00:40:53;14.70;99.90
1015;DHT22;8170;48.118;11.628;2022-09-09T00:42:07;14.70;99.90
1015;DHT22;8170;48.118;11.628;2022-09-09T00:43:24;14.70;99.90
1015;DHT22;8170;48.118;11.628;2022-09-09T00:44:30;14.80;99.90
1015;DHT22;8170;48.118;11.628;2022-09-09T00:45:56;14.80;99.90
1015;DHT22;8170;48.118;11.628;2022-09-09T00:47:12;14.80;99.90
1015;DHT22;8170;48.118;11.628;2022-09-09T00:48:22;14.90;99.90
1015;DHT22;8170;48.118;11.628;2022-09-09T00:49:39;14.90;99.90
1015;DHT22;8170;48.118;11.628;2022-09-09T00:50:49;14.90;99.90
1015;DHT22;8170;48.118;11.628;2022-09-09T00:52:02;14.90;99.90
1015;DHT22;8170;48.118;11.628;2022-09-09T00:53:18;14.90;99.90
1015;DHT22;8170;48.118;11.628;2022-09-09T00:54:30;15.00;99.90
1015;DHT22;8170;48.118;11.628;2022-09-09T00:55:41;15.00;99.90
1015;DHT22;8170;48.118;11.628;2022-09-09T00:56:55;14.90;99.90
1015;DHT22;8170;48.118;11.628;2022-09-09T00:58:02;14.90;99.90
1015;DHT22;8170;48.118;11.628;2022-09-09T00:59:12;14.80;99.90
1015;DHT22;8170;48.118;11.628;2022-09-09T01:00:21;14.80;99.90
1015;DHT22;8170;48.118;11.628;2022-09-09T01:01:23;14.80;99.90
1015;DHT22;8170;48.118;11.628;2022-09-09T01:02:28;14.90;99.90
1015;DHT22;8170;48.118;11.628;2022-09-09T01:03:35;14.90;99.90
1015;DHT22;8170;48.118;11.628;2022-09-09T01:04:40;14.90;99.90
1015;DHT22;8170;48.118;11.628;2022-09-09T01:05:47;15.00;99.90
1015;DHT22;8170;48.118;11.628;2022-09-09T01:06:58;15.00;99.90
1015;DHT22;8170;48.118;11.628;2022-09-09T01:08:14;15.10;99.90
1015;DHT22;8170;48.118;11.628;2022-09-09T01:09:27;15.10;99.90
1015;DHT22;8170;48.118;11.628;2022-09-09T01:10:41;15.10;99.90
1015;DHT22;8170;48.118;11.628;2022-09-09T01:11:57;15.10;99.90
1015;DHT22;8170;48.118;11.628;2022-09-09T01:13:13;15.10;99.90
1015;DHT22;8170;48.118;11.628;2022-09-09T01:14:29;15.10;99.90
1015;DHT22;8170;48.118;11.628;2022-09-09T01:15:34;15.10;99.90
1015;DHT22;8170;48.118;11.628;2022-09-09T01:16:38;15.20;99.90
1015;DHT22;8170;48.118;11.628;2022-09-09T01:17:50;15.20;99.90
1015;DHT22;8170;48.118;11.628;2022-09-09T01:18:56;15.20;99.90
1015;DHT22;8170;48.118;11.628;2022-09-09T01:20:07;15.30;99.90
1015;DHT22;8170;48.118;11.628;2022-09-09T01:21:24;15.30;99.90
1015;DHT22;8170;48.118;11.628;2022-09-09T01:22:36;15.30;99.90
1015;DHT22;8170;48.118;11.628;2022-09-09T01:24:05;15.30;99.90
1015;DHT22;8170;48.118;11.628;2022-09-09T01:26:13;15.30;99.90
1015;DHT22;8170;48.118;11.628;2022-09-09T01:27:19;15.30;99.90
1015;DHT22;8170;48.118;11.628;2022-09-09T01:28:26;15.40;99.90
1015;DHT22;8170;48.118;11.628;2022-09-09T01:29:36;15.40;99.90
1015;DHT22;8170;48.118;11.628;2022-09-09T01:30:41;15.40;99.90
1015;DHT22;8170;48.118;11.628;2022-09-09T01:31:53;15.40;99.90
1015;DHT22;8170;48.118;11.628;2022-09-09T01:32:58;15.40;99.90
1015;DHT22;8170;48.118;11.628;2022-09-09T01:34:02;15.40;99.90
1015;DHT22;8170;48.118;11.628;2022-09-09T01:35:08;15.40;99.90
1015;DHT22;8170;48.118;11.628;2022-09-09T01:36:15;15.50;99.90
1015;DHT22;8170;48.118;11.628;2022-09-09T01:37:24;15.50;99.90
1015;DHT22;8170;48.118;11.628;2022-09-09T01:38:26;15.50;99.90
1015;DHT22;8170;48.118;11.628;2022-09-09T01:39:31;15.50;99.90
1015;DHT22;8170;48.118;11.628;2022-09-09T01:40:38;15.50;99.90
1015;DHT22;8170;48.118;11.628;2022-09-09T01:41:43;15.50;99.90
1015;DHT22;8170;48.118;11.628;2022-09-09T01:42:48;15.50;99.90
1015;DHT22;8170;48.118;11.628;2022-09-09T01:43:50;15.50;99.90
1015;DHT22;8170;48.118;11.628;2022-09-09T01:44:53;15.50;99.90
1015;DHT22;8170;48.118;11.628;2022-09-09T01:45:59;15.50;99.90
1015;DHT22;8170;48.118;11.628;2022-09-09T01:47:04;15.50;99.90
1015;DHT22;8170;48.118;11.628;2022-09-09T01:48:09;15.50;99.90
1015;DHT22;8170;48.118;11.628;2022-09-09T01:49:17;15.50;99.90
1015;DHT22;8170;48.118;11.628;2022-09-09T01:50:21;15.50;99.90
1015;DHT22;8170;48.118;11.628;2022-09-09T01:51:23;15.50;99.90
1015;DHT22;8170;48.118;11.628;2022-09-09T01:52:26;15.50;99.90
1015;DHT22;8170;48.118;11.628;2022-09-09T01:53:29;15.50;99.90
1015;DHT22;8170;48.118;11.628;2022-09-09T01:54:33;15.50;99.90
1015;DHT22;8170;48.118;11.628;2022-09-09T01:55:44;15.50;99.90
1015;DHT22;8170;48.118;11.628;2022-09-09T01:57:00;15.50;99.90
1015;DHT22;8170;48.118;11.628;2022-09-09T01:58:20;15.40;99.90
1015;DHT22;8170;48.118;11.628;2022-09-09T01:59:42;15.40;99.90
1015;DHT22;8170;48.118;11.628;2022-09-09T02:00:54;15.30;99.90
1015;DHT22;8170;48.118;11.628;2022-09-09T02:02:10;15.30;99.90
1015;DHT22;8170;48.118;11.628;2022-09-09T02:03:24;15.20;99.90
1015;DHT22;8170;48.118;11.628;2022-09-09T02:04:38;15.20;99.90
1015;DHT22;8170;48.118;11.628;2022-09-09T02:05:52;15.20;99.90
1015;DHT22;8170;48.118;11.628;2022-09-09T02:07:02;15.20;99.90
1015;DHT22;8170;48.118;11.628;2022-09-09T02:08:11;15.30;99.90
1015;DHT22;8170;48.118;11.628;2022-09-09T02:09:24;15.30;99.90
1015;DHT22;8170;48.118;11.628;2022-09-09T02:10:36;15.20;99.90
1015;DHT22;8170;48.118;11.628;2022-09-09T02:11:52;15.30;99.90
1015;DHT22;8170;48.118;11.628;2022-09-09T02:13:11;15.20;99.90
1015;DHT22;8170;48.118;11.628;2022-09-09T02:14:18;15.20;99.90
1015;DHT22;8170;48.118;11.628;2022-09-09T02:15:29;15.20;99.90
1015;DHT22;8170;48.118;11.628;2022-09-09T02:16:37;15.20;99.90
1015;DHT22;8170;48.118;11.628;2022-09-09T02:17:42;15.20;99.90
1015;DHT22;8170;48.118;11.628;2022-09-09T02:18:53;15.20;99.90
1015;DHT22;8170;48.118;11.628;2022-09-09T02:20:09;15.20;99.90
1015;DHT22;8170;48.118;11.628;2022-09-09T02:21:31;15.20;99.90
1015;DHT22;8170;48.118;11.628;2022-09-09T02:22:39;15.20;99.90
1015;DHT22;8170;48.118;11.628;2022-09-09T02:23:44;15.10;99.90
1015;DHT22;8170;48.118;11.628;2022-09-09T02:24:50;15.10;99.90
1015;DHT22;8170;48.118;11.628;2022-09-09T02:25:58;15.10;99.90
1015;DHT22;8170;48.118;11.628;2022-09-09T02:27:04;15.10;99.90
1015;DHT22;8170;48.118;11.628;2022-09-09T02:28:10;15.10;99.90
1015;DHT22;8170;48.118;11.628;2022-09-09T02:29:17;15.10;99.90
1015;DHT22;8170;48.118;11.628;2022-09-09T02:30:21;15.10;99.90
1015;DHT22;8170;48.118;11.628;2022-09-09T02:31:28;15.10;99.90
1015;DHT22;8170;48.118;11.628;2022-09-09T02:32:37;15.10;99.90
1015;DHT22;8170;48.118;11.628;2022-09-09T02:33:46;15.10;99.90
1015;DHT22;8170;48.118;11.628;2022-09-09T02:34:51;15.10;99.90
1015;DHT22;8170;48.118;11.628;2022-09-09T02:35:56;15.10;99.90
1015;DHT22;8170;48.118;11.628;2022-09-09T02:37:06;15.10;99.90
1015;DHT22;8170;48.118;11.628;2022-09-09T02:38:13;15.10;99.90
1015;DHT22;8170;48.118;11.628;2022-09-09T02:39:25;15.10;99.90
1015;DHT22;8170;48.118;11.628;2022-09-09T02:40:28;15.10;99.90
1015;DHT22;8170;48.118;11.628;2022-09-09T02:41:37;15.10;99.90
1015;DHT22;8170;48.118;11.628;2022-09-09T02:42:41;15.10;99.90
1015;DHT22;8170;48.118;11.628;2022-09-09T02:43:45;15.10;99.90
1015;DHT22;8170;48.118;11.628;2022-09-09T02:44:49;15.00;99.90
1015;DHT22;8170;48.118;11.628;2022-09-09T02:45:57;15.10;99.90
1015;DHT22;8170;48.118;11.628;2022-09-09T02:47:13;15.10;99.90
1015;DHT22;8170;48.118;11.628;2022-09-09T02:48:26;15.10;99.90
1015;DHT22;8170;48.118;11.628;2022-09-09T02:49:40;15.00;99.90
1015;DHT22;8170;48.118;11.628;2022-09-09T02:50:54;15.00;99.90
1015;DHT22;8170;48.118;11.628;2022-09-09T02:52:04;15.00;99.90
1015;DHT22;8170;48.118;11.628;2022-09-09T02:53:16;15.00;99.90
1015;DHT22;8170;48.118;11.628;2022-09-09T02:54:27;15.00;99.90
1015;DHT22;8170;48.118;11.628;2022-09-09T02:55:37;15.00;99.90
1015;DHT22;8170;48.118;11.628;2022-09-09T02:56:47;15.10;99.90
1015;DHT22;8170;48.118;11.628;2022-09-09T02:57:52;15.10;99.90
1015;DHT22;8170;48.118;11.628;2022-09-09T02:58:57;15.10;99.90
1015;DHT22;8170;48.118;11.628;2022-09-09T03:00:00;15.10;99.90
1015;DHT22;8170;48.118;11.628;2022-09-09T03:01:04;15.10;99.90
1015;DHT22;8170;48.118;11.628;2022-09-09T03:02:07;15.10;99.90
1015;DHT22;8170;48.118;11.628;2022-09-09T03:03:12;15.10;99.90
1015;DHT22;8170;48.118;11.628;2022-09-09T03:04:14;15.10;99.90
1015;DHT22;8170;48.118;11.628;2022-09-09T03:05:18;15.00;99.90
1015;DHT22;8170;48.118;11.628;2022-09-09T03:06:20;15.10;99.90
1015;DHT22;8170;48.118;11.628;2022-09-09T03:07:30;15.00;99.90
1015;DHT22;8170;48.118;11.628;2022-09-09T03:08:32;15.10;99.90
1015;DHT22;8170;48.118;11.628;2022-09-09T03:09:35;15.10;99.90
1015;DHT22;8170;48.118;11.628;2022-09-09T03:10:38;15.00;99.90
1015;DHT22;8170;48.118;11.628;2022-09-09T03:11:41;15.00;99.90
1015;DHT22;8170;48.118;11.628;2022-09-09T03:12:43;15.10;99.90
1015;DHT22;8170;48.118;11.628;2022-09-09T03:13:47;15.10;99.90
1015;DHT22;8170;48.118;11.628;2022-09-09T03:14:51;15.10;99.90
1015;DHT22;8170;48.118;11.628;2022-09-09T03:15:55;15.10;99.90
1015;DHT22;8170;48.118;11.628;2022-09-09T03:16:57;15.10;99.90
1015;DHT22;8170;48.118;11.628;2022-09-09T03:18:04;15.10;99.90
1015;DHT22;8170;48.118;11.628;2022-09-09T03:19:07;15.10;99.90
1015;DHT22;8170;48.118;11.628;2022-09-09T03:20:11;15.10;99.90
1015;DHT22;8170;48.118;11.628;2022-09-09T03:21:14;15.10;99.90
1015;DHT22;8170;48.118;11.628;2022-09-09T03:22:18;15.10;99.90
1015;DHT22;8170;48.118;11.628;2022-09-09T03:23:21;15.10;99.90
1015;DHT22;8170;48.118;11.628;2022-09-09T03:24:25;15.10;99.90
1015;DHT22;8170;48.118;11.628;2022-09-09T03:25:28;15.10;99.90
1015;DHT22;8170;48.118;11.628;2022-09-09T03:26:32;15.20;99.90
1015;DHT22;8170;48.118;11.628;2022-09-09T03:27:34;15.10;99.90
1015;DHT22;8170;48.118;11.628;2022-09-09T03:28:38;15.10;99.90
1015;DHT22;8170;48.118;11.628;2022-09-09T03:29:40;15.10;99.90
1015;DHT22;8170;48.118;11.628;2022-09-09T03:30:49;15.10;99.90
1015;DHT22;8170;48.118;11.628;2022-09-09T03:31:51;15.10;99.90
1015;DHT22;8170;48.118;11.628;2022-09-09T03:32:55;15.10;99.90
1015;DHT22;8170;48.118;11.628;2022-09-09T03:34:03;15.10;99.90
1015;DHT22;8170;48.118;11.628;2022-09-09T03:35:08;15.10;99.90
1015;DHT22;8170;48.118;11.628;2022-09-09T03:36:14;15.10;99.90
1015;DHT22;8170;48.118;11.628;2022-09-09T03:37:17;15.10;99.90
1015;DHT22;8170;48.118;11.628;2022-09-09T03:38:20;15.10;99.90
1015;DHT22;8170;48.118;11.628;2022-09-09T03:39:23;15.10;99.90
1015;DHT22;8170;48.118;11.628;2022-09-09T03:40:25;15.00;99.90
1015;DHT22;8170;48.118;11.628;2022-09-09T03:41:29;15.10;99.90
1015;DHT22;8170;48.118;11.628;2022-09-09T03:42:32;15.00;99.90
1015;DHT22;8170;48.118;11.628;2022-09-09T03:43:38;15.00;99.90
1015;DHT22;8170;48.118;11.628;2022-09-09T03:44:41;15.00;99.90
1015;DHT22;8170;48.118;11.628;2022-09-09T03:45:47;15.00;99.90
1015;DHT22;8170;48.118;11.628;2022-09-09T03:46:51;15.00;99.90
1015;DHT22;8170;48.118;11.628;2022-09-09T03:47:54;15.00;99.90
1015;DHT22;8170;48.118;11.628;2022-09-09T03:48:56;15.00;99.90
1015;DHT22;8170;48.118;11.628;2022-09-09T03:49:59;15.00;99.90
1015;DHT22;8170;48.118;11.628;2022-09-09T03:51:03;14.90;99.90
1015;DHT22;8170;48.118;11.628;2022-09-09T03:52:08;14.90;99.90
1015;DHT22;8170;48.118;11.628;2022-09-09T03:53:10;14.90;99.90
1015;DHT22;8170;48.118;11.628;2022-09-09T03:54:13;15.00;99.90
1015;DHT22;8170;48.118;11.628;2022-09-09T03:55:15;14.90;99.90
1015;DHT22;8170;48.118;11.628;2022-09-09T03:56:19;14.90;99.90
1015;DHT22;8170;48.118;11.628;2022-09-09T03:57:23;15.00;99.90
1015;DHT22;8170;48.118;11.628;2022-09-09T03:58:27;15.00;99.90
1015;DHT22;8170;48.118;11.628;2022-09-09T03:59:35;15.00;99.90
1015;DHT22;8170;48.118;11.628;2022-09-09T04:00:39;15.00;99.90
1015;DHT22;8170;48.118;11.628;2022-09-09T04:01:44;15.00;99.90
1015;DHT22;8170;48.118;11.628;2022-09-09T04:02:50;15.00;99.90
1015;DHT22;8170;48.118;11.628;2022-09-09T04:03:52;15.00;99.90
1015;DHT22;8170;48.118;11.628;2022-09-09T04:04:56;15.00;99.90
1015;DHT22;8170;48.118;11.628;2022-09-09T04:06:00;15.00;99.90
1015;DHT22;8170;48.118;11.628;2022-09-09T04:07:04;15.00;99.90
1015;DHT22;8170;48.118;11.628;2022-09-09T04:08:08;15.00;99.90
1015;DHT22;8170;48.118;11.628;2022-09-09T04:09:11;15.00;99.90
1015;DHT22;8170;48.118;11.628;2022-09-09T04:10:14;15.00;99.90
1015;DHT22;8170;48.118;11.628;2022-09-09T04:11:17;15.10;99.90
1015;DHT22;8170;48.118;11.628;2022-09-09T04:12:23;15.10;99.90
1015;DHT22;8170;48.118;11.628;2022-09-09T04:13:27;15.10;99.90
1015;DHT22;8170;48.118;11.628;2022-09-09T04:14:31;15.10;99.90
1015;DHT22;8170;48.118;11.628;2022-09-09T04:15:34;15.10;99.90
1015;DHT22;8170;48.118;11.628;2022-09-09T04:16:37;15.10;99.90
1015;DHT22;8170;48.118;11.628;2022-09-09T04:17:40;15.10;99.90
1015;DHT22;8170;48.118;11.628;2022-09-09T04:18:44;15.10;99.90
1015;DHT22;8170;48.118;11.628;2022-09-09T04:19:49;15.10;99.90
1015;DHT22;8170;48.118;11.628;2022-09-09T04:20:52;15.10;99.90
1015;DHT22;8170;48.118;11.628;2022-09-09T04:21:58;15.10;99.90
1015;DHT22;8170;48.118;11.628;2022-09-09T04:23:01;15.10;99.90
1015;DHT22;8170;48.118;11.628;2022-09-09T04:24:04;15.00;99.90
1015;DHT22;8170;48.118;11.628;2022-09-09T04:25:07;15.10;99.90
1015;DHT22;8170;48.118;11.628;2022-09-09T04:26:13;15.00;99.90
1015;DHT22;8170;48.118;11.628;2022-09-09T04:27:15;15.00;99.90
1015;DHT22;8170;48.118;11.628;2022-09-09T04:28:20;15.00;99.90
1015;DHT22;8170;48.118;11.628;2022-09-09T04:29:23;15.00;99.90
1015;DHT22;8170;48.118;11.628;2022-09-09T04:30:26;15.00;99.90
1015;DHT22;8170;48.118;11.628;2022-09-09T04:31:29;15.00;99.90
1015;DHT22;8170;48.118;11.628;2022-09-09T04:32:32;15.00;99.90
1015;DHT22;8170;48.118;11.628;2022-09-09T04:33:35;15.00;99.90
1015;DHT22;8170;48.118;11.628;2022-09-09T04:34:43;14.90;99.90
1015;DHT22;8170;48.118;11.628;2022-09-09T04:35:47;15.00;99.90
1015;DHT22;8170;48.118;11.628;2022-09-09T04:36:52;14.90;99.90
1015;DHT22;8170;48.118;11.628;2022-09-09T04:37:54;14.90;99.90
1015;DHT22;8170;48.118;11.628;2022-09-09T04:38:58;14.90;99.90
1015;DHT22;8170;48.118;11.628;2022-09-09T04:40:00;14.90;99.90
1015;DHT22;8170;48.118;11.628;2022-09-09T04:41:05;14.90;99.90
1015;DHT22;8170;48.118;11.628;2022-09-09T04:42:09;14.90;99.90
1015;DHT22;8170;48.118;11.628;2022-09-09T04:43:17;14.90;99.90
1015;DHT22;8170;48.118;11.628;2022-09-09T04:44:20;14.90;99.90
1015;DHT22;8170;48.118;11.628;2022-09-09T04:45:23;14.90;99.90
1015;DHT22;8170;48.118;11.628;2022-09-09T04:46:26;14.90;99.90
1015;DHT22;8170;48.118;11.628;2022-09-09T04:47:29;14.90;99.90
1015;DHT22;8170;48.118;11.628;2022-09-09T04:48:31;14.90;99.90
1015;DHT22;8170;48.118;11.628;2022-09-09T04:49:35;14.90;99.90
1015;DHT22;8170;48.118;11.628;2022-09-09T04:50:39;14.80;99.90
1015;DHT22;8170;48.118;11.628;2022-09-09T04:51:45;14.80;99.90
1015;DHT22;8170;48.118;11.628;2022-09-09T04:52:48;14.90;99.90
1015;DHT22;8170;48.118;11.628;2022-09-09T04:53:50;14.90;99.90
1015;DHT22;8170;48.118;11.628;2022-09-09T04:54:55;14.80;99.90
1015;DHT22;8170;48.118;11.628;2022-09-09T04:56:02;14.80;99.90
1015;DHT22;8170;48.118;11.628;2022-09-09T04:57:11;14.70;99.90
1015;DHT22;8170;48.118;11.628;2022-09-09T04:58:19;14.60;99.90
1015;DHT22;8170;48.118;11.628;2022-09-09T04:59:24;14.60;99.90
1015;DHT22;8170;48.118;11.628;2022-09-09T05:00:30;14.60;99.90
1015;DHT22;8170;48.118;11.628;2022-09-09T05:01:33;14.60;99.90
1015;DHT22;8170;48.118;11.628;2022-09-09T05:02:38;14.70;99.90
1015;DHT22;8170;48.118;11.628;2022-09-09T05:03:41;14.70;99.90
1015;DHT22;8170;48.118;11.628;2022-09-09T05:04:46;14.70;99.90
1015;DHT22;8170;48.118;11.628;2022-09-09T05:05:52;14.70;99.90
1015;DHT22;8170;48.118;11.628;2022-09-09T05:06:55;14.70;99.90
1015;DHT22;8170;48.118;11.628;2022-09-09T05:08:01;14.80;99.90
1015;DHT22;8170;48.118;11.628;2022-09-09T05:09:04;14.80;99.90
1015;DHT22;8170;48.118;11.628;2022-09-09T05:10:08;14.80;99.90
1015;DHT22;8170;48.118;11.628;2022-09-09T05:11:16;14.80;99.90
1015;DHT22;8170;48.118;11.628;2022-09-09T05:12:19;14.80;99.90
1015;DHT22;8170;48.118;11.628;2022-09-09T05:13:26;14.80;99.90
1015;DHT22;8170;48.118;11.628;2022-09-09T05:14:28;14.80;99.90
1015;DHT22;8170;48.118;11.628;2022-09-09T05:15:33;14.80;99.90
1015;DHT22;8170;48.118;11.628;2022-09-09T05:16:37;14.90;99.90
1015;DHT22;8170;48.118;11.628;2022-09-09T05:17:42;14.90;99.90
1015;DHT22;8170;48.118;11.628;2022-09-09T05:18:46;14.90;99.90
1015;DHT22;8170;48.118;11.628;2022-09-09T05:19:51;14.90;99.90
1015;DHT22;8170;48.118;11.628;2022-09-09T05:21:00;14.90;99.90
1015;DHT22;8170;48.118;11.628;2022-09-09T05:22:04;15.00;99.90
1015;DHT22;8170;48.118;11.628;2022-09-09T05:23:16;15.00;99.90
1015;DHT22;8170;48.118;11.628;2022-09-09T05:24:20;15.00;99.90
1015;DHT22;8170;48.118;11.628;2022-09-09T05:25:27;15.00;99.90
1015;DHT22;8170;48.118;11.628;2022-09-09T05:26:31;15.10;99.90
1015;DHT22;8170;48.118;11.628;2022-09-09T05:27:34;15.10;99.90
1015;DHT22;8170;48.118;11.628;2022-09-09T05:28:38;15.10;99.90
1015;DHT22;8170;48.118;11.628;2022-09-09T05:29:40;15.20;99.90
1015;DHT22;8170;48.118;11.628;2022-09-09T05:30:55;15.20;99.90
1015;DHT22;8170;48.118;11.628;2022-09-09T05:31:57;15.20;99.90
1015;DHT22;8170;48.118;11.628;2022-09-09T05:33:00;15.10;99.90
1015;DHT22;8170;48.118;11.628;2022-09-09T05:34:02;15.10;99.90
1015;DHT22;8170;48.118;11.628;2022-09-09T05:35:06;15.10;99.90
1015;DHT22;8170;48.118;11.628;2022-09-09T05:36:11;15.20;99.90
1015;DHT22;8170;48.118;11.628;2022-09-09T05:37:16;15.20;99.90
1015;DHT22;8170;48.118;11.628;2022-09-09T05:38:18;15.20;99.90
1015;DHT22;8170;48.118;11.628;2022-09-09T05:39:21;15.20;99.90
1015;DHT22;8170;48.118;11.628;2022-09-09T05:40:23;15.20;99.90
1015;DHT22;8170;48.118;11.628;2022-09-09T05:41:27;15.20;99.90
1015;DHT22;8170;48.118;11.628;2022-09-09T05:42:32;15.20;99.90
1015;DHT22;8170;48.118;11.628;2022-09-09T05:43:35;15.20;99.90
1015;DHT22;8170;48.118;11.628;2022-09-09T05:44:37;15.20;99.90
1015;DHT22;8170;48.118;11.628;2022-09-09T05:45:41;15.20;99.90
1015;DHT22;8170;48.118;11.628;2022-09-09T05:46:43;15.30;99.90
1015;DHT22;8170;48.118;11.628;2022-09-09T05:47:51;15.20;99.90
1015;DHT22;8170;48.118;11.628;2022-09-09T05:48:54;15.30;99.90
1015;DHT22;8170;48.118;11.628;2022-09-09T05:50:05;15.30;99.90
1015;DHT22;8170;48.118;11.628;2022-09-09T05:51:10;15.30;99.90
1015;DHT22;8170;48.118;11.628;2022-09-09T05:52:14;15.20;99.90
1015;DHT22;8170;48.118;11.628;2022-09-09T05:53:18;15.20;99.90
1015;DHT22;8170;48.118;11.628;2022-09-09T05:54:20;15.20;99.90
1015;DHT22;8170;48.118;11.628;2022-09-09T05:55:25;15.20;99.90
1015;DHT22;8170;48.118;11.628;2022-09-09T05:56:28;15.30;99.90
1015;DHT22;8170;48.118;11.628;2022-09-09T05:57:33;15.30;99.90
1015;DHT22;8170;48.118;11.628;2022-09-09T05:58:36;15.30;99.90
1015;DHT22;8170;48.118;11.628;2022-09-09T05:59:42;15.30;99.90
1015;DHT22;8170;48.118;11.628;2022-09-09T06:00:44;15.40;99.90
1015;DHT22;8170;48.118;11.628;2022-09-09T06:01:47;15.40;99.90
1015;DHT22;8170;48.118;11.628;2022-09-09T06:02:56;15.40;99.90
1015;DHT22;8170;48.118;11.628;2022-09-09T06:04:00;15.40;99.90
1015;DHT22;8170;48.118;11.628;2022-09-09T06:05:03;15.40;99.90
1015;DHT22;8170;48.118;11.628;2022-09-09T06:06:08;15.50;99.90
1015;DHT22;8170;48.118;11.628;2022-09-09T06:07:12;15.50;99.90
1015;DHT22;8170;48.118;11.628;2022-09-09T06:08:16;15.50;99.90
1015;DHT22;8170;48.118;11.628;2022-09-09T06:09:18;15.60;99.90
1015;DHT22;8170;48.118;11.628;2022-09-09T06:10:22;15.70;99.90
1015;DHT22;8170;48.118;11.628;2022-09-09T06:11:26;15.70;99.90
1015;DHT22;8170;48.118;11.628;2022-09-09T06:12:29;15.70;99.90
1015;DHT22;8170;48.118;11.628;2022-09-09T06:13:32;15.70;99.90
1015;DHT22;8170;48.118;11.628;2022-09-09T06:14:35;15.70;99.90
1015;DHT22;8170;48.118;11.628;2022-09-09T06:15:38;15.80;99.90
1015;DHT22;8170;48.118;11.628;2022-09-09T06:16:41;15.80;99.90
1015;DHT22;8170;48.118;11.628;2022-09-09T06:17:54;15.80;99.90
1015;DHT22;8170;48.118;11.628;2022-09-09T06:18:57;15.80;99.90
1015;DHT22;8170;48.118;11.628;2022-09-09T06:20:02;15.90;99.90
1015;DHT22;8170;48.118;11.628;2022-09-09T06:21:07;15.80;99.90
1015;DHT22;8170;48.118;11.628;2022-09-09T06:22:12;15.80;99.90
1015;DHT22;8170;48.118;11.628;2022-09-09T06:23:16;15.80;99.90
1015;DHT22;8170;48.118;11.628;2022-09-09T06:24:18;15.80;99.90
1015;DHT22;8170;48.118;11.628;2022-09-09T06:25:21;15.80;99.90
1015;DHT22;8170;48.118;11.628;2022-09-09T06:26:27;15.80;99.90
1015;DHT22;8170;48.118;11.628;2022-09-09T06:27:30;15.80;99.90
1015;DHT22;8170;48.118;11.628;2022-09-09T06:28:34;15.80;99.90
1015;DHT22;8170;48.118;11.628;2022-09-09T06:29:37;15.80;99.90
1015;DHT22;8170;48.118;11.628;2022-09-09T06:30:41;15.70;99.90
1015;DHT22;8170;48.118;11.628;2022-09-09T06:31:44;15.80;99.90
1015;DHT22;8170;48.118;11.628;2022-09-09T06:32:50;15.70;99.90
1015;DHT22;8170;48.118;11.628;2022-09-09T06:33:53;15.80;99.90
1015;DHT22;8170;48.118;11.628;2022-09-09T06:34:58;15.80;99.90
1015;DHT22;8170;48.118;11.628;2022-09-09T06:36:03;15.80;99.90
1015;DHT22;8170;48.118;11.628;2022-09-09T06:37:07;15.80;99.90
1015;DHT22;8170;48.118;11.628;2022-09-09T06:38:16;15.80;99.90
1015;DHT22;8170;48.118;11.628;2022-09-09T06:39:20;15.80;99.90
1015;DHT22;8170;48.118;11.628;2022-09-09T06:40:24;15.80;99.90
1015;DHT22;8170;48.118;11.628;2022-09-09T06:41:27;15.80;99.90
1015;DHT22;8170;48.118;11.628;2022-09-09T06:42:31;15.80;99.90
1015;DHT22;8170;48.118;11.628;2022-09-09T06:43:55;15.80;99.90
1015;DHT22;8170;48.118;11.628;2022-09-09T06:45:08;15.80;99.90
1015;DHT22;8170;48.118;11.628;2022-09-09T06:46:19;15.80;99.90
1015;DHT22;8170;48.118;11.628;2022-09-09T06:47:24;15.90;99.90
1015;DHT22;8170;48.118;11.628;2022-09-09T06:48:28;15.90;99.90
1015;DHT22;8170;48.118;11.628;2022-09-09T06:49:31;15.90;99.90
1015;DHT22;8170;48.118;11.628;2022-09-09T06:50:34;15.90;99.90
1015;DHT22;8170;48.118;11.628;2022-09-09T06:51:38;16.00;99.90
1015;DHT22;8170;48.118;11.628;2022-09-09T06:52:46;16.00;99.90
1015;DHT22;8170;48.118;11.628;2022-09-09T06:53:52;16.00;99.90
1015;DHT22;8170;48.118;11.628;2022-09-09T06:54:57;16.00;99.90
1015;DHT22;8170;48.118;11.628;2022-09-09T06:56:01;16.10;99.90
1015;DHT22;8170;48.118;11.628;2022-09-09T06:57:05;16.10;99.90
1015;DHT22;8170;48.118;11.628;2022-09-09T06:58:31;16.10;99.90
1015;DHT22;8170;48.118;11.628;2022-09-09T06:59:35;16.20;99.90
1015;DHT22;8170;48.118;11.628;2022-09-09T07:00:38;16.20;99.90
1015;DHT22;8170;48.118;11.628;2022-09-09T07:01:42;16.20;99.90
1015;DHT22;8170;48.118;11.628;2022-09-09T07:02:47;16.20;99.90
1015;DHT22;8170;48.118;11.628;2022-09-09T07:03:54;16.30;99.90
1015;DHT22;8170;48.118;11.628;2022-09-09T07:04:57;16.20;99.90
1015;DHT22;8170;48.118;11.628;2022-09-09T07:06:01;16.30;99.90
1015;DHT22;8170;48.118;11.628;2022-09-09T07:07:06;16.30;99.90